McNary Field Salem US
ICAO: KSLE
IATA: SLE
Category: Medium
Scheduled Services: No

Elevation: 214 ft
TransAlt. 18000 ft.

Airport Communications:
ATIS:124.55
SEATTLE CNTR:125.8
CTAF:119.1
GND:121.9
MC MINNVILLE RDO:122.6
SALEM TWR:119.1
UNICOM:122.95

KSLE Zoom In..

Runways:

(A) RW 13 length 5811 ft width 150 ft
---- / hdg 133

(B) RW 16 length 5145 ft width 100 ft
---- / hdg 164

(C) RW 31 length 5811 ft width 150 ft
ILS 110.30 / hdg 313

(D) RW 34 length 5145 ft width 100 ft
---- / hdg 344

Location; KSLE
Day. 30 / Time. 22.56 Zulu
* Altimeter: 30.37
* Temperature: 10° c. 50°f.
* Wind from: 300° Speed 04 kn.
Dewpoint: 04° c.
Visibility: 10 Statute Miles.
Clouds: Scattered 3700 ft.
Clouds: Scattered 5000 ft.
Clouds: Broken 7500 ft.

KSLE 302256Z 30004KT 10SM SCT037 SCT050 BKN075 10/04 A3037 RMK AO2 RAB34E52 SLP284 P0000 T01000039

Going to: --> -->


Wind From 300°
Speed 04 kn.

 
 
jpsmedia worldairports.se 2020   terms of use